createdAt,value
2018-07-13T00:01:39.549Z,99820.48
2018-07-13T00:04:07.022Z,99820.63
2018-07-13T00:06:34.498Z,99819.20
2018-07-13T00:09:01.944Z,99815.79
2018-07-13T00:11:29.404Z,99821.62
2018-07-13T00:14:08.471Z,99819.80
2018-07-13T00:16:35.766Z,99821.59
2018-07-13T00:19:03.266Z,99823.03
2018-07-13T00:21:30.677Z,99822.75
2018-07-13T00:23:58.189Z,99825.98
2018-07-13T00:26:25.601Z,99833.15
2018-07-13T00:28:53.126Z,99828.43
2018-07-13T00:31:20.535Z,99834.16
2018-07-13T00:33:47.994Z,99831.81
2018-07-13T00:36:15.453Z,99834.67
2018-07-13T00:38:42.895Z,99833.52
2018-07-13T00:41:10.361Z,99839.89
2018-07-13T00:43:37.813Z,99832.61
2018-07-13T00:46:05.287Z,99837.42
2018-07-13T00:48:32.742Z,99833.61
2018-07-13T00:51:00.201Z,99833.49
2018-07-13T00:53:27.626Z,99832.85
2018-07-13T00:55:55.105Z,99837.52
2018-07-13T00:58:22.594Z,99838.80
2018-07-13T01:00:50.022Z,99842.05
2018-07-13T01:03:17.486Z,99841.39
2018-07-13T01:05:44.933Z,99848.27
2018-07-13T01:08:12.377Z,99845.66
2018-07-13T01:10:39.849Z,99842.94
2018-07-13T01:13:07.293Z,99839.04
2018-07-13T01:15:34.758Z,99842.42
2018-07-13T01:18:02.245Z,99844.22
2018-07-13T01:20:29.666Z,99847.08
2018-07-13T01:22:57.125Z,99845.53
2018-07-13T01:25:24.594Z,99844.59
2018-07-13T01:27:52.063Z,99846.91
2018-07-13T01:30:19.525Z,99847.42
2018-07-13T01:32:46.941Z,99848.45
2018-07-13T01:35:14.430Z,99854.30
2018-07-13T01:37:41.885Z,99844.16
2018-07-13T01:40:09.314Z,99846.34
2018-07-13T01:42:36.783Z,99848.30
2018-07-13T01:45:04.266Z,99848.02
2018-07-13T01:47:31.690Z,99848.81
2018-07-13T01:49:59.161Z,99849.45
2018-07-13T01:52:26.637Z,99851.16
2018-07-13T01:54:54.125Z,99855.70
2018-07-13T01:57:21.538Z,99855.55
2018-07-13T01:59:48.988Z,99861.15
2018-07-13T02:02:16.351Z,99851.25
2018-07-13T02:04:43.791Z,99853.35
2018-07-13T02:07:11.326Z,99852.28
2018-07-13T02:09:38.701Z,99858.01
2018-07-13T02:12:06.177Z,99854.99
2018-07-13T02:14:33.629Z,99859.80
2018-07-13T02:17:01.078Z,99862.55
2018-07-13T02:19:28.570Z,99863.82
2018-07-13T02:21:56.018Z,99859.02
2018-07-13T02:24:23.446Z,99863.55
2018-07-13T02:26:50.927Z,99863.55
2018-07-13T02:29:18.393Z,99855.47
2018-07-13T02:31:45.834Z,99856.27
2018-07-13T02:34:13.282Z,99862.11
2018-07-13T02:36:40.759Z,99864.34
2018-07-13T02:39:08.281Z,99860.56
2018-07-13T02:41:35.677Z,99861.98
2018-07-13T02:44:03.113Z,99862.63
2018-07-13T02:46:30.563Z,99869.91
2018-07-13T02:48:58.026Z,99870.34
2018-07-13T02:51:25.490Z,99866.92
2018-07-13T02:53:52.951Z,99871.34
2018-07-13T02:56:20.389Z,99866.41
2018-07-13T02:58:47.870Z,99870.58
2018-07-13T03:01:15.307Z,99873.56
2018-07-13T03:03:42.827Z,99866.56
2018-07-13T03:06:10.239Z,99872.13
2018-07-13T03:08:37.697Z,99872.46
2018-07-13T03:11:05.137Z,99867.41
2018-07-13T03:13:32.590Z,99866.45
2018-07-13T03:16:00.057Z,99870.27
2018-07-13T03:18:27.507Z,99872.34
2018-07-13T03:20:54.973Z,99873.25
2018-07-13T03:23:22.433Z,99873.77
2018-07-13T03:25:49.898Z,99871.55
2018-07-13T03:28:17.344Z,99874.56
2018-07-13T03:30:44.826Z,99880.64
2018-07-13T03:33:12.271Z,99882.88
2018-07-13T03:35:39.744Z,99879.22
2018-07-13T03:38:07.190Z,99882.72
2018-07-13T03:40:34.653Z,99878.42
2018-07-13T03:43:02.101Z,99881.64
2018-07-13T03:45:29.599Z,99881.80
2018-07-13T03:47:57.014Z,99882.44
2018-07-13T03:50:25.498Z,99883.88
2018-07-13T03:52:52.988Z,99887.88
2018-07-13T03:55:20.402Z,99892.97
2018-07-13T03:57:47.850Z,99887.77
2018-07-13T04:00:15.313Z,99889.19
2018-07-13T04:02:42.768Z,99885.02
2018-07-13T04:05:10.210Z,99890.52
2018-07-13T04:07:37.713Z,99889.59
2018-07-13T04:10:05.177Z,99897.90
2018-07-13T04:12:32.581Z,99889.31
2018-07-13T04:15:00.069Z,99886.97
2018-07-13T04:17:27.521Z,99884.75
2018-07-13T04:19:54.978Z,99884.11
2018-07-13T04:22:22.438Z,99886.41
2018-07-13T04:24:49.890Z,99883.47
2018-07-13T04:27:17.373Z,99888.80
2018-07-13T04:29:44.889Z,99884.66
2018-07-13T04:32:12.261Z,99878.02
2018-07-13T04:34:39.709Z,99884.02
2018-07-13T04:37:07.152Z,99878.02
2018-07-13T04:39:34.634Z,99882.80
2018-07-13T04:42:02.070Z,99885.30
2018-07-13T04:44:29.596Z,99874.22
2018-07-13T04:46:57.001Z,99882.95
2018-07-13T04:49:24.462Z,99881.52
2018-07-13T04:51:51.923Z,99882.95
2018-07-13T04:54:19.389Z,99887.37
2018-07-13T04:56:46.813Z,99889.31
2018-07-13T04:59:14.281Z,99888.76
2018-07-13T05:01:41.748Z,99888.25
2018-07-13T05:04:09.204Z,99884.47
2018-07-13T05:06:36.678Z,99888.13
2018-07-13T05:09:06.074Z,99891.90
2018-07-13T05:11:33.400Z,99887.77
2018-07-13T05:14:00.885Z,99893.97
2018-07-13T05:16:28.313Z,99897.22
2018-07-13T05:18:55.812Z,99897.22
2018-07-13T05:21:23.248Z,99897.77
2018-07-13T05:23:50.693Z,99901.13
2018-07-13T05:26:18.162Z,99904.22
2018-07-13T05:28:45.617Z,99903.70
2018-07-13T05:31:13.265Z,99899.41
2018-07-13T05:33:40.738Z,99907.08
2018-07-13T05:36:08.190Z,99910.09
2018-07-13T05:38:35.641Z,99912.95
2018-07-13T05:41:03.112Z,99906.28
2018-07-13T05:43:30.554Z,99904.86
2018-07-13T05:45:58.080Z,99907.08
2018-07-13T05:48:25.498Z,99913.72
2018-07-13T05:50:52.951Z,99904.73
2018-07-13T05:53:20.387Z,99911.22
2018-07-13T05:55:47.857Z,99913.95
2018-07-13T05:58:15.354Z,99908.23
2018-07-13T06:00:42.768Z,99912.95
2018-07-13T06:03:10.226Z,99912.16
2018-07-13T06:05:37.686Z,99912.65
2018-07-13T06:08:05.187Z,99914.59
2018-07-13T06:10:32.604Z,99919.52
2018-07-13T06:13:00.082Z,99914.59
2018-07-13T06:15:27.525Z,99914.87
2018-07-13T06:17:54.984Z,99917.33
2018-07-13T06:20:22.421Z,99925.91
2018-07-13T06:22:49.894Z,99928.11
2018-07-13T06:25:17.349Z,99929.69
2018-07-13T06:27:44.822Z,99923.97
2018-07-13T06:30:12.242Z,99923.17
2018-07-13T06:32:39.738Z,99924.88
2018-07-13T06:35:07.189Z,99923.09
2018-07-13T06:37:34.634Z,99920.88
2018-07-13T06:40:02.335Z,99920.11
2018-07-13T06:42:29.782Z,99922.30
2018-07-13T06:44:57.210Z,99921.71
2018-07-13T06:47:24.671Z,99928.15
2018-07-13T06:49:52.111Z,99927.51
2018-07-13T06:52:19.615Z,99929.33
2018-07-13T06:54:47.033Z,99928.81
2018-07-13T06:57:24.446Z,99935.54
2018-07-13T06:59:51.777Z,99935.30
2018-07-13T07:02:30.385Z,99933.08
2018-07-13T07:05:10.430Z,99938.75
2018-07-13T07:07:37.920Z,99935.61
2018-07-13T07:10:05.415Z,99943.41
2018-07-13T07:12:48.826Z,99946.03
2018-07-13T07:15:16.171Z,99949.00
2018-07-13T07:17:43.629Z,99946.58
2018-07-13T07:20:11.070Z,99944.00
2018-07-13T07:22:38.530Z,99947.50
2018-07-13T07:25:05.998Z,99949.00
2018-07-13T07:27:33.441Z,99951.38
2018-07-13T07:30:00.878Z,99949.72
2018-07-13T07:32:28.342Z,99945.94
2018-07-13T07:34:55.867Z,99948.13
2018-07-13T07:37:23.259Z,99942.64
2018-07-13T07:39:50.707Z,99945.50
2018-07-13T07:42:18.182Z,99941.49
2018-07-13T07:46:10.222Z,99945.14
2018-07-13T07:48:37.686Z,99947.85
2018-07-13T07:51:05.154Z,99941.09
2018-07-13T07:53:32.590Z,99939.78
2018-07-13T07:56:00.032Z,99940.14
2018-07-13T07:58:27.544Z,99944.25
2018-07-13T08:00:54.951Z,99946.32
2018-07-13T08:03:22.419Z,99947.52
2018-07-13T08:05:49.862Z,99947.11
2018-07-13T08:08:17.356Z,99950.10
2018-07-13T08:10:44.792Z,99950.10
2018-07-13T08:13:12.283Z,99950.73
2018-07-13T08:15:39.689Z,99945.81
2018-07-13T08:18:07.184Z,99951.12
2018-07-13T08:20:36.434Z,99950.10
2018-07-13T08:23:06.319Z,99950.97
2018-07-13T08:25:34.663Z,99951.12
2018-07-13T08:28:03.008Z,99951.12
2018-07-13T08:30:37.298Z,99951.77
2018-07-13T08:33:04.826Z,99954.34
2018-07-13T08:35:32.277Z,99951.41
2018-07-13T08:37:59.731Z,99948.46
2018-07-13T08:40:27.168Z,99950.33
2018-07-13T08:42:54.633Z,99954.46
2018-07-13T08:45:22.097Z,99950.69
2018-07-13T08:47:49.546Z,99956.69
2018-07-13T08:50:17.036Z,99954.91
2018-07-13T08:52:44.505Z,99948.34
2018-07-13T08:55:11.993Z,99950.97
2018-07-13T08:57:39.604Z,99948.62
2018-07-13T09:00:07.258Z,99945.40
2018-07-13T09:02:34.723Z,99943.69
2018-07-13T09:05:02.154Z,99943.18
2018-07-13T09:07:30.047Z,99942.26
2018-07-13T09:09:58.396Z,99946.39
2018-07-13T09:12:25.755Z,99945.25
2018-07-13T09:14:53.242Z,99944.45
2018-07-13T09:17:20.663Z,99950.10
2018-07-13T09:19:48.171Z,99950.10
2018-07-13T09:22:15.593Z,99943.59
2018-07-13T09:24:43.049Z,99943.46
2018-07-13T09:27:10.507Z,99935.80
2018-07-13T09:29:37.942Z,99943.59
2018-07-13T09:32:05.562Z,99944.66
2018-07-13T09:34:33.063Z,99940.53
2018-07-13T09:37:00.537Z,99940.53
2018-07-13T09:39:27.974Z,99944.94
2018-07-13T09:41:55.482Z,99946.94
2018-07-13T09:44:22.929Z,99946.70
2018-07-13T09:46:50.488Z,99940.63
2018-07-13T09:49:17.814Z,99945.63
2018-07-13T09:51:45.305Z,99947.93
2018-07-13T09:54:12.845Z,99948.85
2018-07-13T09:56:40.194Z,99936.48
2018-07-13T09:59:07.658Z,99933.39
2018-07-13T10:01:35.100Z,99941.47
2018-07-13T10:04:02.562Z,99938.12
2018-07-13T10:06:30.086Z,99939.67
2018-07-13T10:08:57.466Z,99942.81
2018-07-13T10:11:24.949Z,99942.18
2018-07-13T10:13:52.411Z,99945.83
2018-07-13T10:16:19.846Z,99944.02
2018-07-13T10:18:47.314Z,99945.12
2018-07-13T10:21:14.746Z,99944.20
2018-07-13T10:23:43.118Z,99944.33
2018-07-13T10:26:12.781Z,99943.69
2018-07-13T10:28:40.216Z,99939.83
2018-07-13T10:31:07.849Z,99944.76
2018-07-13T10:33:35.546Z,99935.14
2018-07-13T10:36:03.529Z,99940.38
2018-07-13T10:38:30.858Z,99941.30
2018-07-13T10:40:58.901Z,99947.15
2018-07-13T10:43:26.476Z,99942.73
2018-07-13T10:45:53.859Z,99939.99
2018-07-13T10:48:21.294Z,99939.63
2018-07-13T10:50:48.748Z,99941.98
2018-07-13T10:53:16.214Z,99936.13
2018-07-13T10:55:43.538Z,99935.61
2018-07-13T10:58:10.918Z,99933.19
2018-07-13T11:00:38.381Z,99928.22
2018-07-13T11:03:05.832Z,99928.22
2018-07-13T11:05:33.297Z,99927.73
2018-07-13T11:08:00.746Z,99922.50
2018-07-13T11:10:28.189Z,99925.27
2018-07-13T11:12:55.710Z,99918.27
2018-07-13T11:15:23.098Z,99920.09
2018-07-13T11:17:50.483Z,99917.59
2018-07-13T11:20:17.921Z,99921.69
2018-07-13T11:22:45.392Z,99920.38
2018-07-13T11:25:12.933Z,99921.81
2018-07-13T11:27:40.319Z,99921.02
2018-07-13T11:30:07.746Z,99930.31
2018-07-13T11:32:35.222Z,99923.67
2018-07-13T11:35:02.825Z,99922.52
2018-07-13T11:37:30.342Z,99917.27
2018-07-13T11:39:57.797Z,99920.93
2018-07-13T11:42:25.258Z,99913.53
2018-07-13T11:44:52.716Z,99918.77
2018-07-13T11:47:20.154Z,99919.17
2018-07-13T11:49:47.625Z,99914.08
2018-07-13T11:52:15.170Z,99908.35
2018-07-13T11:54:42.559Z,99906.55
2018-07-13T11:57:09.987Z,99904.88
2018-07-13T11:59:37.455Z,99909.69
2018-07-13T12:02:04.923Z,99909.05
2018-07-13T12:04:32.350Z,99912.55
2018-07-13T12:06:59.835Z,99906.31
2018-07-13T12:09:27.259Z,99907.38
2018-07-13T12:11:54.751Z,99905.45
2018-07-13T12:14:22.221Z,99901.70
2018-07-13T12:16:49.674Z,99891.90
2018-07-13T12:19:17.098Z,99890.37
2018-07-13T12:21:44.555Z,99890.12
2018-07-13T12:24:12.027Z,99895.91
2018-07-13T12:26:39.485Z,99885.21
2018-07-13T12:29:06.949Z,99886.00
2018-07-13T12:31:34.386Z,99884.17
2018-07-13T12:34:01.855Z,99886.10
2018-07-13T12:36:29.300Z,99888.33
2018-07-13T12:38:56.778Z,99886.25
2018-07-13T12:41:24.218Z,99884.81
2018-07-13T12:43:51.665Z,99871.78
2018-07-13T12:46:19.183Z,99876.34
2018-07-13T12:48:46.581Z,99872.84
2018-07-13T12:51:14.055Z,99880.00
2018-07-13T12:53:41.493Z,99874.42
2018-07-13T12:56:08.981Z,99870.25
2018-07-13T12:58:36.414Z,99877.28
2018-07-13T13:01:03.957Z,99879.48
2018-07-13T13:03:31.364Z,99882.25
2018-07-13T13:05:58.792Z,99886.06
2018-07-13T13:08:26.243Z,99876.97
2018-07-13T13:10:53.709Z,99874.87
2018-07-13T13:13:21.165Z,99880.75
2018-07-13T13:15:48.630Z,99875.81
2018-07-13T13:18:16.106Z,99879.59
2018-07-13T13:20:43.521Z,99871.52
2018-07-13T13:23:10.990Z,99867.61
2018-07-13T13:25:38.458Z,99874.25
2018-07-13T13:28:05.944Z,99863.45
2018-07-13T13:30:33.371Z,99864.74
2018-07-13T13:33:00.839Z,99865.80
2018-07-13T13:35:28.310Z,99856.84
2018-07-13T13:37:55.733Z,99859.43
2018-07-13T13:40:23.578Z,99860.45
2018-07-13T13:42:51.039Z,99864.64
2018-07-13T13:45:18.538Z,99864.39
2018-07-13T13:47:45.985Z,99870.64
2018-07-13T13:50:13.438Z,99864.81
2018-07-13T13:52:40.895Z,99866.23
2018-07-13T13:55:08.364Z,99860.62
2018-07-13T13:57:35.805Z,99864.14
2018-07-13T14:00:03.281Z,99864.55
2018-07-13T14:02:30.706Z,99863.24
2018-07-13T14:04:58.190Z,99861.81
2018-07-13T14:07:25.619Z,99861.27
2018-07-13T14:09:53.077Z,99851.66
2018-07-13T14:12:20.608Z,99853.88
2018-07-13T14:14:48.025Z,99851.13
2018-07-13T14:17:15.458Z,99847.10
2018-07-13T14:19:42.934Z,99846.84
2018-07-13T14:22:10.381Z,99844.39
2018-07-13T14:24:37.832Z,99837.76
2018-07-13T14:27:05.295Z,99841.64
2018-07-13T14:29:32.770Z,99836.81
2018-07-13T14:32:00.190Z,99834.74
2018-07-13T14:34:27.679Z,99834.22
2018-07-13T14:36:55.116Z,99828.22
2018-07-13T14:39:22.589Z,99831.89
2018-07-13T14:41:50.017Z,99830.98
2018-07-13T14:44:17.497Z,99832.95
2018-07-13T14:46:44.970Z,99825.78
2018-07-13T14:49:12.425Z,99835.55
2018-07-13T14:51:40.127Z,99824.87
2018-07-13T14:54:07.854Z,99820.05
2018-07-13T14:56:35.373Z,99829.16
2018-07-13T14:59:02.870Z,99827.48
2018-07-13T15:01:30.306Z,99823.97
2018-07-13T15:03:57.826Z,99818.08
2018-07-13T15:06:25.312Z,99819.67
2018-07-13T15:08:52.670Z,99813.29
2018-07-13T15:11:20.128Z,99813.29
2018-07-13T15:13:47.582Z,99804.95
2018-07-13T15:16:15.047Z,99811.98
2018-07-13T15:18:42.498Z,99806.50
2018-07-13T15:21:09.962Z,99812.39
2018-07-13T15:23:37.411Z,99811.59
2018-07-13T15:26:04.953Z,99814.31
2018-07-13T15:28:32.333Z,99809.52
2018-07-13T15:30:59.806Z,99809.91
2018-07-13T15:33:27.253Z,99801.71
2018-07-13T15:35:54.719Z,99804.17
2018-07-13T15:38:22.178Z,99804.05
2018-07-13T15:40:49.622Z,99800.66
2018-07-13T15:43:17.131Z,99796.23
2018-07-13T15:45:44.533Z,99794.13
2018-07-13T15:48:11.994Z,99792.70
2018-07-13T15:50:39.457Z,99792.84
2018-07-13T15:53:06.888Z,99792.84
2018-07-13T15:55:34.388Z,99789.45
2018-07-13T15:58:01.810Z,99792.32
2018-07-13T16:00:29.302Z,99788.92
2018-07-13T16:02:56.745Z,99792.73
2018-07-13T16:05:24.286Z,99794.28
2018-07-13T16:07:51.868Z,99793.50
2018-07-13T16:10:19.333Z,99795.87
2018-07-13T16:12:46.757Z,99794.17
2018-07-13T16:15:14.218Z,99786.73
2018-07-13T16:17:41.690Z,99786.59
2018-07-13T16:20:09.121Z,99790.89
2018-07-13T16:22:36.626Z,99790.52
2018-07-13T16:25:04.050Z,99794.55
2018-07-13T16:27:31.544Z,99788.28
2018-07-13T16:29:58.945Z,99791.42
2018-07-13T16:32:26.431Z,99789.98
2018-07-13T16:34:53.857Z,99788.70
2018-07-13T16:37:21.342Z,99781.38
2018-07-13T16:39:48.834Z,99779.56
2018-07-13T16:42:16.269Z,99780.09
2018-07-13T16:44:43.714Z,99775.15
2018-07-13T16:47:11.146Z,99783.75
2018-07-13T16:49:38.735Z,99784.13
2018-07-13T16:52:06.161Z,99784.02
2018-07-13T16:54:33.665Z,99778.13
2018-07-13T16:57:01.004Z,99771.87
2018-07-13T16:59:28.498Z,99776.32
2018-07-13T17:01:55.916Z,99771.23
2018-07-13T17:04:23.400Z,99766.55
2018-07-13T17:06:50.809Z,99769.27
2018-07-13T17:09:18.270Z,99771.38
2018-07-13T17:11:45.753Z,99770.05
2018-07-13T17:14:13.207Z,99767.19
2018-07-13T17:16:40.645Z,99765.75
2018-07-13T17:19:08.130Z,99763.14
2018-07-13T17:21:35.554Z,99759.63
2018-07-13T17:24:03.025Z,99760.28
2018-07-13T17:26:30.494Z,99765.23
2018-07-13T17:28:57.935Z,99752.99
2018-07-13T17:31:25.405Z,99762.00
2018-07-13T17:33:52.838Z,99754.69
2018-07-13T17:36:20.313Z,99753.25
2018-07-13T17:38:47.758Z,99754.19
2018-07-13T17:41:15.244Z,99759.93
2018-07-13T17:43:42.667Z,99756.42
2018-07-13T17:46:10.146Z,99748.83
2018-07-13T17:48:37.662Z,99754.84
2018-07-13T17:51:05.045Z,99752.23
2018-07-13T17:53:32.513Z,99752.88
2018-07-13T17:56:00.041Z,99753.81
2018-07-13T17:58:27.531Z,99753.66
2018-07-13T18:00:55.049Z,99755.73
2018-07-13T18:03:22.335Z,99754.98
2018-07-13T18:05:49.800Z,99754.31
2018-07-13T18:08:17.253Z,99755.24
2018-07-13T18:10:44.729Z,99753.55
2018-07-13T18:13:12.178Z,99756.42
2018-07-13T18:15:39.626Z,99748.45
2018-07-13T18:18:07.093Z,99750.15
2018-07-13T18:20:34.540Z,99748.57
2018-07-13T18:23:02.088Z,99748.45
2018-07-13T18:25:29.512Z,99747.40
2018-07-13T18:27:56.930Z,99749.89
2018-07-13T18:30:24.360Z,99751.72
2018-07-13T18:32:51.816Z,99756.03
2018-07-13T18:35:19.286Z,99756.41
2018-07-13T18:37:46.736Z,99753.55
2018-07-13T18:40:14.185Z,99754.33
2018-07-13T18:42:41.661Z,99757.45
2018-07-13T18:45:09.111Z,99753.53
2018-07-13T18:47:36.586Z,99750.40
2018-07-13T18:50:04.138Z,99756.66
2018-07-13T18:52:31.482Z,99754.20
2018-07-13T18:54:58.949Z,99751.33
2018-07-13T18:57:26.391Z,99759.78
2018-07-13T18:59:53.873Z,99756.92
2018-07-13T19:02:21.330Z,99760.47
2018-07-13T19:04:48.764Z,99748.20
2018-07-13T19:07:16.243Z,99754.06
2018-07-13T19:09:43.688Z,99758.63
2018-07-13T19:12:11.168Z,99761.64
2018-07-13T19:14:38.602Z,99758.23
2018-07-13T19:17:06.087Z,99759.66
2018-07-13T19:19:33.539Z,99754.45
2018-07-13T19:22:00.954Z,99756.94
2018-07-13T19:24:28.450Z,99752.88
2018-07-13T19:26:55.903Z,99761.98
2018-07-13T19:29:23.364Z,99764.70
2018-07-13T19:31:50.806Z,99762.73
2018-07-13T19:34:18.249Z,99764.59
2018-07-13T19:36:45.710Z,99758.81
2018-07-13T19:39:13.180Z,99764.97
2018-07-13T19:41:40.637Z,99761.80
2018-07-13T19:44:08.089Z,99766.13
2018-07-13T19:46:35.559Z,99780.44
2018-07-13T19:49:03.174Z,99776.25
2018-07-13T19:51:30.694Z,99783.30
2018-07-13T19:53:58.134Z,99783.82
2018-07-13T19:56:25.565Z,99784.58
2018-07-13T19:58:53.046Z,99787.06
2018-07-13T20:01:20.478Z,99786.42
2018-07-13T20:03:47.949Z,99791.48
2018-07-13T20:06:15.406Z,99798.79
2018-07-13T20:08:42.874Z,99796.58
2018-07-13T20:11:10.360Z,99799.59
2018-07-13T20:13:37.783Z,99802.19
2018-07-13T20:16:05.294Z,99800.34
2018-07-13T20:18:32.701Z,99801.15
2018-07-13T20:21:00.135Z,99804.97
2018-07-13T20:23:27.609Z,99808.77
2018-07-13T20:25:55.046Z,99807.72
2018-07-13T20:28:22.523Z,99805.83
2018-07-13T20:30:49.975Z,99814.81
2018-07-13T20:33:17.462Z,99816.39
2018-07-13T20:35:44.902Z,99817.83
2018-07-13T20:38:12.347Z,99823.45
2018-07-13T20:40:39.815Z,99822.54
2018-07-13T20:43:07.258Z,99824.23
2018-07-13T20:45:34.725Z,99822.42
2018-07-13T20:48:02.178Z,99828.01
2018-07-13T20:50:29.643Z,99833.25
2018-07-13T20:52:57.074Z,99835.71
2018-07-13T20:55:24.557Z,99829.97
2018-07-13T20:57:52.030Z,99827.88
2018-07-13T21:00:19.470Z,99828.03
2018-07-13T21:02:46.955Z,99828.03
2018-07-13T21:05:14.390Z,99829.20
2018-07-13T21:07:41.838Z,99834.70
2018-07-13T21:10:09.316Z,99835.23
2018-07-13T21:12:36.746Z,99832.09
2018-07-13T21:15:04.457Z,99839.39
2018-07-13T21:17:31.869Z,99837.18
2018-07-13T21:19:59.370Z,99836.77
2018-07-13T21:22:26.803Z,99838.34
2018-07-13T21:24:54.258Z,99834.04
2018-07-13T21:27:21.762Z,99834.30
2018-07-13T21:29:49.162Z,99827.39
2018-07-13T21:32:16.616Z,99836.25
2018-07-13T21:34:44.054Z,99830.27
2018-07-13T21:37:11.546Z,99837.55
2018-07-13T21:39:38.978Z,99838.72
2018-07-13T21:42:06.485Z,99842.77
2018-07-13T21:44:33.993Z,99839.14
2018-07-13T21:47:01.369Z,99843.56
2018-07-13T21:49:28.823Z,99834.29
2018-07-13T21:51:56.386Z,99835.98
2018-07-13T21:54:23.785Z,99840.30
2018-07-13T21:56:52.354Z,99834.41
2018-07-13T21:59:19.848Z,99830.64
2018-07-13T22:01:47.490Z,99837.05
2018-07-13T22:04:14.777Z,99835.20
2018-07-13T22:06:42.318Z,99840.05
2018-07-13T22:09:09.846Z,99848.02
2018-07-13T22:11:37.482Z,99846.69
2018-07-13T22:14:04.803Z,99842.01
2018-07-13T22:16:32.299Z,99841.33
2018-07-13T22:18:59.722Z,99845.26
2018-07-13T22:21:27.191Z,99847.61
2018-07-13T22:23:54.708Z,99839.12
2018-07-13T22:26:22.093Z,99843.44
2018-07-13T22:28:49.830Z,99843.55
2018-07-13T22:31:17.241Z,99844.75
2018-07-13T22:33:44.664Z,99846.30
2018-07-13T22:36:12.135Z,99843.69
2018-07-13T22:38:39.589Z,99850.87
2018-07-13T22:41:07.057Z,99852.56
2018-07-13T22:43:34.494Z,99853.74
2018-07-13T22:46:01.978Z,99846.69
2018-07-13T22:48:29.405Z,99858.29
2018-07-13T22:50:56.885Z,99860.63
2018-07-13T22:53:24.337Z,99864.94
2018-07-13T22:55:51.806Z,99855.68
2018-07-13T22:58:19.245Z,99858.02
2018-07-13T23:00:46.701Z,99859.98
2018-07-13T23:03:14.013Z,99855.53
2018-07-13T23:05:41.421Z,99860.38
2018-07-13T23:08:08.862Z,99862.06
2018-07-13T23:10:36.333Z,99872.37
2018-07-13T23:13:03.832Z,99874.19
2018-07-13T23:15:31.221Z,99869.63
2018-07-13T23:17:58.694Z,99869.77
2018-07-13T23:20:26.157Z,99864.03
2018-07-13T23:22:53.633Z,99864.41
2018-07-13T23:25:21.057Z,99866.75
2018-07-13T23:27:48.534Z,99867.81
2018-07-13T23:30:16.006Z,99858.94
2018-07-13T23:32:43.445Z,99857.62
2018-07-13T23:35:10.902Z,99862.19
2018-07-13T23:37:38.384Z,99861.27
2018-07-13T23:40:05.800Z,99853.84
2018-07-13T23:42:33.282Z,99858.78
2018-07-13T23:45:00.733Z,99853.42
2018-07-13T23:47:28.195Z,99844.03
2018-07-13T23:49:55.654Z,99846.78
2018-07-13T23:52:23.145Z,99848.86
2018-07-13T23:54:50.545Z,99847.80
2018-07-13T23:57:18.010Z,99849.23
2018-07-13T23:59:45.465Z,99841.80
